sensor_id;sensor_type;location;lat;lon;timestamp;P1;durP1;ratioP1;P2;durP2;ratioP2
45488;SDS011;31236;55.026;61.042;2023-05-07T00:01:47;15.08;;;5.25;;
45488;SDS011;31236;55.026;61.042;2023-05-07T00:04:17;9.93;;;4.60;;
45488;SDS011;31236;55.026;61.042;2023-05-07T00:06:46;13.15;;;6.35;;
45488;SDS011;31236;55.026;61.042;2023-05-07T00:09:17;14.60;;;5.35;;
45488;SDS011;31236;55.026;61.042;2023-05-07T00:11:47;12.88;;;5.37;;
45488;SDS011;31236;55.026;61.042;2023-05-07T00:14:16;13.95;;;5.12;;
45488;SDS011;31236;55.026;61.042;2023-05-07T00:16:47;11.88;;;5.85;;
45488;SDS011;31236;55.026;61.042;2023-05-07T00:19:16;14.50;;;5.37;;
45488;SDS011;31236;55.026;61.042;2023-05-07T00:21:46;10.20;;;5.05;;
45488;SDS011;31236;55.026;61.042;2023-05-07T00:24:16;20.60;;;6.33;;
45488;SDS011;31236;55.026;61.042;2023-05-07T00:26:46;14.53;;;6.22;;
45488;SDS011;31236;55.026;61.042;2023-05-07T00:29:16;13.00;;;6.30;;
45488;SDS011;31236;55.026;61.042;2023-05-07T00:31:46;17.32;;;6.58;;
45488;SDS011;31236;55.026;61.042;2023-05-07T00:34:17;18.73;;;6.20;;
45488;SDS011;31236;55.026;61.042;2023-05-07T00:36:47;12.80;;;5.95;;
45488;SDS011;31236;55.026;61.042;2023-05-07T00:39:17;13.93;;;5.33;;
45488;SDS011;31236;55.026;61.042;2023-05-07T00:41:47;14.18;;;5.60;;
45488;SDS011;31236;55.026;61.042;2023-05-07T00:44:17;11.97;;;5.12;;
45488;SDS011;31236;55.026;61.042;2023-05-07T00:46:47;11.97;;;5.35;;
45488;SDS011;31236;55.026;61.042;2023-05-07T00:49:17;11.75;;;4.97;;
45488;SDS011;31236;55.026;61.042;2023-05-07T00:51:48;13.93;;;5.70;;
45488;SDS011;31236;55.026;61.042;2023-05-07T00:54:18;11.63;;;5.05;;
45488;SDS011;31236;55.026;61.042;2023-05-07T00:56:49;12.33;;;5.05;;
45488;SDS011;31236;55.026;61.042;2023-05-07T00:59:19;13.62;;;4.92;;
45488;SDS011;31236;55.026;61.042;2023-05-07T01:01:49;10.88;;;5.03;;
45488;SDS011;31236;55.026;61.042;2023-05-07T01:04:18;14.35;;;5.28;;
45488;SDS011;31236;55.026;61.042;2023-05-07T01:06:48;13.00;;;5.03;;
45488;SDS011;31236;55.026;61.042;2023-05-07T01:09:19;10.25;;;4.83;;
45488;SDS011;31236;55.026;61.042;2023-05-07T01:11:49;11.18;;;4.95;;
45488;SDS011;31236;55.026;61.042;2023-05-07T01:14:20;13.40;;;5.00;;
45488;SDS011;31236;55.026;61.042;2023-05-07T01:16:50;12.03;;;4.58;;
45488;SDS011;31236;55.026;61.042;2023-05-07T01:19:20;12.45;;;4.62;;
45488;SDS011;31236;55.026;61.042;2023-05-07T01:21:50;12.75;;;4.20;;
45488;SDS011;31236;55.026;61.042;2023-05-07T01:24:22;13.62;;;5.62;;
45488;SDS011;31236;55.026;61.042;2023-05-07T01:26:52;12.25;;;4.78;;
45488;SDS011;31236;55.026;61.042;2023-05-07T01:29:21;12.03;;;4.33;;
45488;SDS011;31236;55.026;61.042;2023-05-07T01:31:51;10.00;;;4.20;;
45488;SDS011;31236;55.026;61.042;2023-05-07T01:34:22;11.83;;;4.00;;
45488;SDS011;31236;55.026;61.042;2023-05-07T01:36:54;9.90;;;3.92;;
45488;SDS011;31236;55.026;61.042;2023-05-07T01:39:25;10.18;;;4.37;;
45488;SDS011;31236;55.026;61.042;2023-05-07T01:41:56;12.10;;;4.62;;
45488;SDS011;31236;55.026;61.042;2023-05-07T01:44:27;10.48;;;4.67;;
45488;SDS011;31236;55.026;61.042;2023-05-07T01:46:58;13.22;;;4.45;;
45488;SDS011;31236;55.026;61.042;2023-05-07T01:49:28;8.75;;;4.37;;
45488;SDS011;31236;55.026;61.042;2023-05-07T01:51:58;13.98;;;4.75;;
45488;SDS011;31236;55.026;61.042;2023-05-07T01:54:28;11.25;;;5.33;;
45488;SDS011;31236;55.026;61.042;2023-05-07T01:56:58;15.40;;;5.12;;
45488;SDS011;31236;55.026;61.042;2023-05-07T01:59:28;11.95;;;4.90;;
45488;SDS011;31236;55.026;61.042;2023-05-07T02:01:57;15.90;;;5.92;;
45488;SDS011;31236;55.026;61.042;2023-05-07T02:04:27;10.58;;;3.92;;
45488;SDS011;31236;55.026;61.042;2023-05-07T02:06:57;9.88;;;3.95;;
45488;SDS011;31236;55.026;61.042;2023-05-07T02:09:26;8.98;;;4.40;;
45488;SDS011;31236;55.026;61.042;2023-05-07T02:11:56;10.68;;;4.65;;
45488;SDS011;31236;55.026;61.042;2023-05-07T02:14:26;14.98;;;4.83;;
45488;SDS011;31236;55.026;61.042;2023-05-07T02:16:56;15.50;;;5.20;;
45488;SDS011;31236;55.026;61.042;2023-05-07T02:19:26;10.90;;;4.28;;
45488;SDS011;31236;55.026;61.042;2023-05-07T02:21:55;15.50;;;4.70;;
45488;SDS011;31236;55.026;61.042;2023-05-07T02:24:25;13.58;;;4.67;;
45488;SDS011;31236;55.026;61.042;2023-05-07T02:26:55;14.83;;;4.97;;
45488;SDS011;31236;55.026;61.042;2023-05-07T02:29:25;13.85;;;4.17;;
45488;SDS011;31236;55.026;61.042;2023-05-07T02:31:54;8.48;;;4.03;;
45488;SDS011;31236;55.026;61.042;2023-05-07T02:34:24;11.83;;;4.28;;
45488;SDS011;31236;55.026;61.042;2023-05-07T02:36:54;13.30;;;4.70;;
45488;SDS011;31236;55.026;61.042;2023-05-07T02:39:24;12.88;;;4.33;;
45488;SDS011;31236;55.026;61.042;2023-05-07T02:41:53;11.88;;;3.98;;
45488;SDS011;31236;55.026;61.042;2023-05-07T02:44:23;17.50;;;4.83;;
45488;SDS011;31236;55.026;61.042;2023-05-07T02:46:53;15.32;;;5.03;;
45488;SDS011;31236;55.026;61.042;2023-05-07T02:49:22;9.68;;;3.87;;
45488;SDS011;31236;55.026;61.042;2023-05-07T02:51:52;9.03;;;4.22;;
45488;SDS011;31236;55.026;61.042;2023-05-07T02:54:22;12.85;;;4.95;;
45488;SDS011;31236;55.026;61.042;2023-05-07T02:56:51;9.80;;;4.30;;
45488;SDS011;31236;55.026;61.042;2023-05-07T02:59:22;13.72;;;5.17;;
45488;SDS011;31236;55.026;61.042;2023-05-07T03:01:52;11.85;;;4.50;;
45488;SDS011;31236;55.026;61.042;2023-05-07T03:04:22;11.05;;;5.33;;
45488;SDS011;31236;55.026;61.042;2023-05-07T03:06:52;16.02;;;6.25;;
45488;SDS011;31236;55.026;61.042;2023-05-07T03:09:21;14.30;;;6.30;;
45488;SDS011;31236;55.026;61.042;2023-05-07T03:11:51;17.02;;;8.88;;
45488;SDS011;31236;55.026;61.042;2023-05-07T03:14:20;20.52;;;11.20;;
45488;SDS011;31236;55.026;61.042;2023-05-07T03:16:50;18.67;;;10.68;;
45488;SDS011;31236;55.026;61.042;2023-05-07T03:19:20;20.48;;;11.18;;
45488;SDS011;31236;55.026;61.042;2023-05-07T03:21:50;14.50;;;8.10;;
45488;SDS011;31236;55.026;61.042;2023-05-07T03:24:19;17.10;;;7.60;;
45488;SDS011;31236;55.026;61.042;2023-05-07T03:26:49;13.13;;;6.72;;
45488;SDS011;31236;55.026;61.042;2023-05-07T03:29:19;13.32;;;5.25;;
45488;SDS011;31236;55.026;61.042;2023-05-07T03:31:48;15.60;;;6.37;;
45488;SDS011;31236;55.026;61.042;2023-05-07T03:34:18;15.30;;;5.78;;
45488;SDS011;31236;55.026;61.042;2023-05-07T03:36:48;13.00;;;5.25;;
45488;SDS011;31236;55.026;61.042;2023-05-07T03:39:18;18.23;;;7.22;;
45488;SDS011;31236;55.026;61.042;2023-05-07T03:41:47;15.18;;;6.30;;
45488;SDS011;31236;55.026;61.042;2023-05-07T03:44:17;12.33;;;4.80;;
45488;SDS011;31236;55.026;61.042;2023-05-07T03:46:46;13.68;;;5.03;;
45488;SDS011;31236;55.026;61.042;2023-05-07T03:49:16;12.10;;;5.92;;
45488;SDS011;31236;55.026;61.042;2023-05-07T03:51:45;12.53;;;4.90;;
45488;SDS011;31236;55.026;61.042;2023-05-07T03:54:15;16.65;;;5.17;;
45488;SDS011;31236;55.026;61.042;2023-05-07T03:56:44;13.72;;;5.95;;
45488;SDS011;31236;55.026;61.042;2023-05-07T03:59:14;7.55;;;3.87;;
45488;SDS011;31236;55.026;61.042;2023-05-07T04:01:44;11.63;;;4.97;;
45488;SDS011;31236;55.026;61.042;2023-05-07T04:04:14;14.50;;;5.10;;
45488;SDS011;31236;55.026;61.042;2023-05-07T04:06:44;20.60;;;5.00;;
45488;SDS011;31236;55.026;61.042;2023-05-07T04:09:14;18.57;;;4.83;;
45488;SDS011;31236;55.026;61.042;2023-05-07T04:11:44;10.88;;;4.78;;
45488;SDS011;31236;55.026;61.042;2023-05-07T04:14:14;15.48;;;5.50;;
45488;SDS011;31236;55.026;61.042;2023-05-07T04:16:43;11.65;;;4.75;;
45488;SDS011;31236;55.026;61.042;2023-05-07T04:19:13;25.37;;;5.90;;
45488;SDS011;31236;55.026;61.042;2023-05-07T04:21:43;15.10;;;4.78;;
45488;SDS011;31236;55.026;61.042;2023-05-07T04:24:13;14.03;;;5.40;;
45488;SDS011;31236;55.026;61.042;2023-05-07T04:26:42;18.80;;;7.15;;
45488;SDS011;31236;55.026;61.042;2023-05-07T04:29:12;19.82;;;6.10;;
45488;SDS011;31236;55.026;61.042;2023-05-07T04:31:42;17.50;;;5.85;;
45488;SDS011;31236;55.026;61.042;2023-05-07T04:34:12;12.37;;;4.55;;
45488;SDS011;31236;55.026;61.042;2023-05-07T04:36:41;19.45;;;5.65;;
45488;SDS011;31236;55.026;61.042;2023-05-07T04:39:12;12.50;;;4.97;;
45488;SDS011;31236;55.026;61.042;2023-05-07T04:41:42;25.55;;;5.75;;
45488;SDS011;31236;55.026;61.042;2023-05-07T04:44:12;18.40;;;5.20;;
45488;SDS011;31236;55.026;61.042;2023-05-07T04:46:43;18.62;;;5.00;;
45488;SDS011;31236;55.026;61.042;2023-05-07T04:49:12;12.05;;;4.65;;
45488;SDS011;31236;55.026;61.042;2023-05-07T04:51:44;12.93;;;4.67;;
45488;SDS011;31236;55.026;61.042;2023-05-07T04:54:13;19.77;;;5.22;;
45488;SDS011;31236;55.026;61.042;2023-05-07T04:56:43;15.85;;;5.12;;
45488;SDS011;31236;55.026;61.042;2023-05-07T04:59:13;13.25;;;5.33;;
45488;SDS011;31236;55.026;61.042;2023-05-07T05:01:43;12.63;;;4.83;;
45488;SDS011;31236;55.026;61.042;2023-05-07T05:04:12;15.72;;;5.37;;
45488;SDS011;31236;55.026;61.042;2023-05-07T05:06:42;17.80;;;5.85;;
45488;SDS011;31236;55.026;61.042;2023-05-07T05:09:12;16.62;;;5.12;;
45488;SDS011;31236;55.026;61.042;2023-05-07T05:11:42;13.75;;;5.42;;
45488;SDS011;31236;55.026;61.042;2023-05-07T05:14:12;12.95;;;5.10;;
45488;SDS011;31236;55.026;61.042;2023-05-07T05:16:42;13.20;;;5.95;;
45488;SDS011;31236;55.026;61.042;2023-05-07T05:19:12;17.10;;;5.67;;
45488;SDS011;31236;55.026;61.042;2023-05-07T05:21:42;19.80;;;5.25;;
45488;SDS011;31236;55.026;61.042;2023-05-07T05:24:12;14.07;;;5.28;;
45488;SDS011;31236;55.026;61.042;2023-05-07T05:26:42;14.00;;;5.50;;
45488;SDS011;31236;55.026;61.042;2023-05-07T05:29:11;16.77;;;5.28;;
45488;SDS011;31236;55.026;61.042;2023-05-07T05:31:41;18.17;;;5.20;;
45488;SDS011;31236;55.026;61.042;2023-05-07T05:34:11;13.28;;;4.83;;
45488;SDS011;31236;55.026;61.042;2023-05-07T05:36:40;17.65;;;5.05;;
45488;SDS011;31236;55.026;61.042;2023-05-07T05:39:10;13.70;;;5.53;;
45488;SDS011;31236;55.026;61.042;2023-05-07T05:41:40;14.68;;;5.45;;
45488;SDS011;31236;55.026;61.042;2023-05-07T05:44:10;17.62;;;5.75;;
45488;SDS011;31236;55.026;61.042;2023-05-07T05:46:41;14.65;;;5.40;;
45488;SDS011;31236;55.026;61.042;2023-05-07T05:49:11;16.37;;;5.40;;
45488;SDS011;31236;55.026;61.042;2023-05-07T05:51:41;23.83;;;6.22;;
45488;SDS011;31236;55.026;61.042;2023-05-07T05:54:12;14.60;;;5.40;;
45488;SDS011;31236;55.026;61.042;2023-05-07T05:56:41;14.00;;;5.22;;
45488;SDS011;31236;55.026;61.042;2023-05-07T05:59:11;16.82;;;4.83;;
45488;SDS011;31236;55.026;61.042;2023-05-07T06:01:41;16.32;;;4.97;;
45488;SDS011;31236;55.026;61.042;2023-05-07T06:04:11;12.50;;;5.45;;
45488;SDS011;31236;55.026;61.042;2023-05-07T06:06:40;22.55;;;5.17;;
45488;SDS011;31236;55.026;61.042;2023-05-07T06:09:11;13.50;;;4.78;;
45488;SDS011;31236;55.026;61.042;2023-05-07T06:11:40;9.65;;;4.35;;
45488;SDS011;31236;55.026;61.042;2023-05-07T06:14:10;15.48;;;5.70;;
45488;SDS011;31236;55.026;61.042;2023-05-07T06:16:40;19.27;;;6.00;;
45488;SDS011;31236;55.026;61.042;2023-05-07T06:19:09;19.25;;;5.00;;
45488;SDS011;31236;55.026;61.042;2023-05-07T06:21:39;12.13;;;4.55;;
45488;SDS011;31236;55.026;61.042;2023-05-07T06:24:09;8.13;;;4.80;;
45488;SDS011;31236;55.026;61.042;2023-05-07T06:26:39;11.95;;;4.45;;
45488;SDS011;31236;55.026;61.042;2023-05-07T06:29:09;13.72;;;4.45;;
45488;SDS011;31236;55.026;61.042;2023-05-07T06:31:38;15.63;;;5.03;;
45488;SDS011;31236;55.026;61.042;2023-05-07T06:34:08;12.18;;;4.40;;
45488;SDS011;31236;55.026;61.042;2023-05-07T06:36:40;11.60;;;4.43;;
45488;SDS011;31236;55.026;61.042;2023-05-07T06:39:10;13.85;;;4.22;;
45488;SDS011;31236;55.026;61.042;2023-05-07T06:41:39;15.53;;;4.87;;
45488;SDS011;31236;55.026;61.042;2023-05-07T06:44:09;8.40;;;4.42;;
45488;SDS011;31236;55.026;61.042;2023-05-07T06:46:39;12.55;;;4.53;;
45488;SDS011;31236;55.026;61.042;2023-05-07T06:49:09;10.28;;;4.70;;
45488;SDS011;31236;55.026;61.042;2023-05-07T06:51:38;12.10;;;4.60;;
45488;SDS011;31236;55.026;61.042;2023-05-07T06:54:08;13.78;;;4.42;;
45488;SDS011;31236;55.026;61.042;2023-05-07T06:56:38;13.35;;;4.95;;
45488;SDS011;31236;55.026;61.042;2023-05-07T06:59:08;12.53;;;4.90;;
45488;SDS011;31236;55.026;61.042;2023-05-07T07:01:38;11.33;;;4.70;;
45488;SDS011;31236;55.026;61.042;2023-05-07T07:04:07;9.88;;;4.97;;
45488;SDS011;31236;55.026;61.042;2023-05-07T07:06:37;12.68;;;4.58;;
45488;SDS011;31236;55.026;61.042;2023-05-07T07:09:07;13.43;;;4.92;;
45488;SDS011;31236;55.026;61.042;2023-05-07T07:11:36;17.62;;;5.03;;
45488;SDS011;31236;55.026;61.042;2023-05-07T07:14:06;19.73;;;5.17;;
45488;SDS011;31236;55.026;61.042;2023-05-07T07:16:36;23.67;;;5.15;;
45488;SDS011;31236;55.026;61.042;2023-05-07T07:19:06;21.23;;;5.78;;
45488;SDS011;31236;55.026;61.042;2023-05-07T07:21:36;39.60;;;5.70;;
45488;SDS011;31236;55.026;61.042;2023-05-07T07:24:05;28.38;;;6.10;;
45488;SDS011;31236;55.026;61.042;2023-05-07T07:26:37;41.02;;;6.17;;
45488;SDS011;31236;55.026;61.042;2023-05-07T07:29:08;19.70;;;5.57;;
45488;SDS011;31236;55.026;61.042;2023-05-07T07:31:38;24.75;;;5.25;;
45488;SDS011;31236;55.026;61.042;2023-05-07T07:34:07;21.20;;;5.42;;
45488;SDS011;31236;55.026;61.042;2023-05-07T07:36:37;23.35;;;5.60;;
45488;SDS011;31236;55.026;61.042;2023-05-07T07:39:07;27.40;;;6.00;;
45488;SDS011;31236;55.026;61.042;2023-05-07T07:41:37;24.87;;;6.17;;
45488;SDS011;31236;55.026;61.042;2023-05-07T07:44:06;26.87;;;5.47;;
45488;SDS011;31236;55.026;61.042;2023-05-07T07:46:38;46.40;;;7.15;;
45488;SDS011;31236;55.026;61.042;2023-05-07T07:49:07;60.55;;;7.47;;
45488;SDS011;31236;55.026;61.042;2023-05-07T07:51:37;33.80;;;7.60;;
45488;SDS011;31236;55.026;61.042;2023-05-07T07:54:07;28.85;;;6.10;;
45488;SDS011;31236;55.026;61.042;2023-05-07T07:56:37;32.93;;;5.15;;
45488;SDS011;31236;55.026;61.042;2023-05-07T07:59:07;31.48;;;7.33;;
45488;SDS011;31236;55.026;61.042;2023-05-07T08:01:37;31.80;;;5.35;;
45488;SDS011;31236;55.026;61.042;2023-05-07T08:04:06;28.77;;;5.92;;
45488;SDS011;31236;55.026;61.042;2023-05-07T08:06:36;25.95;;;5.70;;
45488;SDS011;31236;55.026;61.042;2023-05-07T08:09:06;14.60;;;5.25;;
45488;SDS011;31236;55.026;61.042;2023-05-07T08:11:35;24.32;;;5.28;;
45488;SDS011;31236;55.026;61.042;2023-05-07T08:14:06;28.77;;;6.35;;
45488;SDS011;31236;55.026;61.042;2023-05-07T08:16:36;28.83;;;5.22;;
45488;SDS011;31236;55.026;61.042;2023-05-07T08:19:06;31.90;;;5.97;;
45488;SDS011;31236;55.026;61.042;2023-05-07T08:21:38;40.08;;;6.03;;
45488;SDS011;31236;55.026;61.042;2023-05-07T08:24:08;32.90;;;5.87;;
45488;SDS011;31236;55.026;61.042;2023-05-07T08:26:38;36.68;;;6.70;;
45488;SDS011;31236;55.026;61.042;2023-05-07T08:29:08;44.30;;;7.00;;
45488;SDS011;31236;55.026;61.042;2023-05-07T08:31:38;27.00;;;5.30;;
45488;SDS011;31236;55.026;61.042;2023-05-07T08:34:07;35.35;;;5.67;;
45488;SDS011;31236;55.026;61.042;2023-05-07T08:36:37;32.48;;;5.50;;
45488;SDS011;31236;55.026;61.042;2023-05-07T08:39:08;32.80;;;6.05;;
45488;SDS011;31236;55.026;61.042;2023-05-07T08:41:37;36.03;;;5.12;;
45488;SDS011;31236;55.026;61.042;2023-05-07T08:44:11;30.63;;;5.10;;
45488;SDS011;31236;55.026;61.042;2023-05-07T08:46:41;22.02;;;5.25;;
45488;SDS011;31236;55.026;61.042;2023-05-07T08:49:14;37.98;;;7.05;;
45488;SDS011;31236;55.026;61.042;2023-05-07T08:51:44;23.18;;;4.78;;
45488;SDS011;31236;55.026;61.042;2023-05-07T08:56:46;32.88;;;5.33;;
45488;SDS011;31236;55.026;61.042;2023-05-07T08:59:16;32.48;;;6.00;;
45488;SDS011;31236;55.026;61.042;2023-05-07T09:01:45;34.67;;;5.47;;
45488;SDS011;31236;55.026;61.042;2023-05-07T09:04:15;29.67;;;6.20;;
45488;SDS011;31236;55.026;61.042;2023-05-07T09:06:45;27.30;;;4.97;;
45488;SDS011;31236;55.026;61.042;2023-05-07T09:09:16;24.90;;;4.83;;
45488;SDS011;31236;55.026;61.042;2023-05-07T09:11:46;28.83;;;5.42;;
45488;SDS011;31236;55.026;61.042;2023-05-07T09:14:16;27.73;;;5.35;;
45488;SDS011;31236;55.026;61.042;2023-05-07T09:16:48;20.02;;;4.67;;
45488;SDS011;31236;55.026;61.042;2023-05-07T09:19:21;26.42;;;5.12;;
45488;SDS011;31236;55.026;61.042;2023-05-07T09:22:08;29.00;;;6.35;;
45488;SDS011;31236;55.026;61.042;2023-05-07T09:24:38;27.32;;;5.37;;
45488;SDS011;31236;55.026;61.042;2023-05-07T09:27:08;32.73;;;6.53;;
45488;SDS011;31236;55.026;61.042;2023-05-07T09:29:39;40.48;;;6.37;;
45488;SDS011;31236;55.026;61.042;2023-05-07T09:32:09;30.20;;;5.90;;
45488;SDS011;31236;55.026;61.042;2023-05-07T09:34:39;25.10;;;4.83;;
45488;SDS011;31236;55.026;61.042;2023-05-07T09:37:10;26.25;;;5.15;;
45488;SDS011;31236;55.026;61.042;2023-05-07T09:39:42;26.60;;;4.90;;
45488;SDS011;31236;55.026;61.042;2023-05-07T09:42:32;35.52;;;6.05;;
45488;SDS011;31236;55.026;61.042;2023-05-07T09:45:04;37.80;;;5.80;;
45488;SDS011;31236;55.026;61.042;2023-05-07T09:47:34;26.82;;;5.78;;
45488;SDS011;31236;55.026;61.042;2023-05-07T09:50:07;26.30;;;5.33;;
45488;SDS011;31236;55.026;61.042;2023-05-07T09:52:38;27.67;;;5.90;;
45488;SDS011;31236;55.026;61.042;2023-05-07T09:55:09;24.55;;;5.12;;
45488;SDS011;31236;55.026;61.042;2023-05-07T09:57:40;34.23;;;6.65;;
45488;SDS011;31236;55.026;61.042;2023-05-07T10:02:41;28.85;;;6.40;;
45488;SDS011;31236;55.026;61.042;2023-05-07T10:07:46;30.55;;;6.25;;
45488;SDS011;31236;55.026;61.042;2023-05-07T10:10:16;32.83;;;6.65;;
45488;SDS011;31236;55.026;61.042;2023-05-07T10:12:47;29.27;;;6.40;;
45488;SDS011;31236;55.026;61.042;2023-05-07T10:15:19;41.10;;;7.57;;
45488;SDS011;31236;55.026;61.042;2023-05-07T10:17:50;43.13;;;8.95;;
45488;SDS011;31236;55.026;61.042;2023-05-07T10:20:22;28.97;;;7.73;;
45488;SDS011;31236;55.026;61.042;2023-05-07T10:22:52;46.90;;;9.88;;
45488;SDS011;31236;55.026;61.042;2023-05-07T12:30:55;11.70;;;1.80;;
45488;SDS011;31236;55.026;61.042;2023-05-07T12:33:25;11.28;;;1.82;;
45488;SDS011;31236;55.026;61.042;2023-05-07T12:35:57;11.93;;;2.60;;
45488;SDS011;31236;55.026;61.042;2023-05-07T12:38:27;6.80;;;1.70;;
45488;SDS011;31236;55.026;61.042;2023-05-07T12:40:59;19.50;;;3.30;;
45488;SDS011;31236;55.026;61.042;2023-05-07T12:43:29;17.17;;;5.17;;
45488;SDS011;31236;55.026;61.042;2023-05-07T12:46:00;9.63;;;2.42;;
45488;SDS011;31236;55.026;61.042;2023-05-07T12:48:32;9.05;;;1.40;;
45488;SDS011;31236;55.026;61.042;2023-05-07T12:51:04;7.45;;;1.60;;
45488;SDS011;31236;55.026;61.042;2023-05-07T12:56:27;14.93;;;5.53;;
45488;SDS011;31236;55.026;61.042;2023-05-07T12:59:01;11.90;;;2.12;;
45488;SDS011;31236;55.026;61.042;2023-05-07T13:01:33;8.93;;;1.37;;
45488;SDS011;31236;55.026;61.042;2023-05-07T13:06:53;7.53;;;1.40;;
45488;SDS011;31236;55.026;61.042;2023-05-07T13:09:22;12.98;;;1.50;;
45488;SDS011;31236;55.026;61.042;2023-05-07T13:11:52;8.68;;;1.70;;
45488;SDS011;31236;55.026;61.042;2023-05-07T13:14:22;12.20;;;1.80;;
45488;SDS011;31236;55.026;61.042;2023-05-07T13:16:52;7.92;;;1.42;;
45488;SDS011;31236;55.026;61.042;2023-05-07T13:19:22;6.92;;;2.00;;
45488;SDS011;31236;55.026;61.042;2023-05-07T13:21:51;5.10;;;1.32;;
45488;SDS011;31236;55.026;61.042;2023-05-07T13:24:21;5.25;;;1.57;;
45488;SDS011;31236;55.026;61.042;2023-05-07T13:26:51;8.23;;;3.47;;
45488;SDS011;31236;55.026;61.042;2023-05-07T13:29:21;11.48;;;2.40;;
45488;SDS011;31236;55.026;61.042;2023-05-07T13:31:52;12.70;;;2.00;;
45488;SDS011;31236;55.026;61.042;2023-05-07T13:34:22;8.55;;;4.28;;
45488;SDS011;31236;55.026;61.042;2023-05-07T13:36:51;17.70;;;4.45;;
45488;SDS011;31236;55.026;61.042;2023-05-07T13:39:21;11.88;;;2.15;;
45488;SDS011;31236;55.026;61.042;2023-05-07T13:41:51;7.90;;;2.25;;
45488;SDS011;31236;55.026;61.042;2023-05-07T13:44:21;21.52;;;8.00;;
45488;SDS011;31236;55.026;61.042;2023-05-07T13:46:50;21.05;;;2.40;;
45488;SDS011;31236;55.026;61.042;2023-05-07T13:49:20;13.55;;;2.50;;
45488;SDS011;31236;55.026;61.042;2023-05-07T13:51:50;8.48;;;5.05;;
45488;SDS011;31236;55.026;61.042;2023-05-07T13:54:20;4.37;;;0.75;;
45488;SDS011;31236;55.026;61.042;2023-05-07T13:56:49;14.58;;;2.15;;
45488;SDS011;31236;55.026;61.042;2023-05-07T13:59:19;10.45;;;2.05;;
45488;SDS011;31236;55.026;61.042;2023-05-07T14:01:49;9.28;;;1.80;;
45488;SDS011;31236;55.026;61.042;2023-05-07T14:04:21;15.15;;;2.85;;
45488;SDS011;31236;55.026;61.042;2023-05-07T14:06:50;21.68;;;2.37;;
45488;SDS011;31236;55.026;61.042;2023-05-07T14:09:21;12.47;;;2.08;;
45488;SDS011;31236;55.026;61.042;2023-05-07T14:11:50;18.98;;;2.42;;
45488;SDS011;31236;55.026;61.042;2023-05-07T14:14:20;10.50;;;1.50;;
45488;SDS011;31236;55.026;61.042;2023-05-07T14:16:50;6.72;;;1.20;;
45488;SDS011;31236;55.026;61.042;2023-05-07T14:19:20;3.75;;;1.25;;
45488;SDS011;31236;55.026;61.042;2023-05-07T14:21:50;13.80;;;1.40;;
45488;SDS011;31236;55.026;61.042;2023-05-07T14:24:19;8.38;;;0.90;;
45488;SDS011;31236;55.026;61.042;2023-05-07T14:26:50;5.08;;;0.93;;
45488;SDS011;31236;55.026;61.042;2023-05-07T14:29:19;7.92;;;1.15;;
45488;SDS011;31236;55.026;61.042;2023-05-07T14:31:49;7.95;;;1.72;;
45488;SDS011;31236;55.026;61.042;2023-05-07T14:34:19;7.17;;;0.80;;
45488;SDS011;31236;55.026;61.042;2023-05-07T14:36:49;7.10;;;0.60;;
45488;SDS011;31236;55.026;61.042;2023-05-07T14:39:18;4.67;;;0.80;;
45488;SDS011;31236;55.026;61.042;2023-05-07T14:41:48;3.40;;;0.55;;
45488;SDS011;31236;55.026;61.042;2023-05-07T14:44:18;1.32;;;0.60;;
45488;SDS011;31236;55.026;61.042;2023-05-07T14:46:47;7.28;;;0.90;;
45488;SDS011;31236;55.026;61.042;2023-05-07T14:49:17;20.12;;;6.83;;
45488;SDS011;31236;55.026;61.042;2023-05-07T14:51:47;7.30;;;3.00;;
45488;SDS011;31236;55.026;61.042;2023-05-07T14:54:17;6.17;;;2.12;;
45488;SDS011;31236;55.026;61.042;2023-05-07T14:56:46;4.45;;;1.90;;
45488;SDS011;31236;55.026;61.042;2023-05-07T14:59:16;5.35;;;1.92;;
45488;SDS011;31236;55.026;61.042;2023-05-07T15:01:47;8.53;;;2.30;;
45488;SDS011;31236;55.026;61.042;2023-05-07T15:04:17;4.15;;;1.77;;
45488;SDS011;31236;55.026;61.042;2023-05-07T15:06:47;5.78;;;1.05;;
45488;SDS011;31236;55.026;61.042;2023-05-07T15:09:18;1.70;;;1.00;;
45488;SDS011;31236;55.026;61.042;2023-05-07T15:11:48;5.22;;;1.15;;
45488;SDS011;31236;55.026;61.042;2023-05-07T15:14:17;0.70;;;0.60;;
45488;SDS011;31236;55.026;61.042;2023-05-07T15:19:37;15.35;;;3.30;;
45488;SDS011;31236;55.026;61.042;2023-05-07T15:22:07;9.98;;;3.85;;
45488;SDS011;31236;55.026;61.042;2023-05-07T15:24:36;14.15;;;1.62;;
45488;SDS011;31236;55.026;61.042;2023-05-07T15:27:07;4.67;;;2.95;;
45488;SDS011;31236;55.026;61.042;2023-05-07T15:29:36;0.75;;;0.50;;
45488;SDS011;31236;55.026;61.042;2023-05-07T15:32:06;10.55;;;1.57;;
45488;SDS011;31236;55.026;61.042;2023-05-07T15:34:36;5.35;;;1.42;;
45488;SDS011;31236;55.026;61.042;2023-05-07T15:37:07;3.05;;;0.90;;
45488;SDS011;31236;55.026;61.042;2023-05-07T15:39:37;3.15;;;0.90;;
45488;SDS011;31236;55.026;61.042;2023-05-07T15:42:07;2.55;;;1.17;;
45488;SDS011;31236;55.026;61.042;2023-05-07T15:44:36;10.85;;;4.85;;
45488;SDS011;31236;55.026;61.042;2023-05-07T15:47:07;6.47;;;1.72;;
45488;SDS011;31236;55.026;61.042;2023-05-07T15:49:37;3.62;;;1.02;;
45488;SDS011;31236;55.026;61.042;2023-05-07T15:52:06;2.17;;;0.75;;
45488;SDS011;31236;55.026;61.042;2023-05-07T15:54:56;4.62;;;1.20;;
45488;SDS011;31236;55.026;61.042;2023-05-07T15:57:26;4.65;;;1.00;;
45488;SDS011;31236;55.026;61.042;2023-05-07T15:59:57;5.00;;;1.32;;
45488;SDS011;31236;55.026;61.042;2023-05-07T16:02:26;3.98;;;1.22;;
45488;SDS011;31236;55.026;61.042;2023-05-07T16:04:56;5.25;;;1.40;;
45488;SDS011;31236;55.026;61.042;2023-05-07T16:07:26;3.17;;;0.98;;
45488;SDS011;31236;55.026;61.042;2023-05-07T16:09:56;7.70;;;1.87;;
45488;SDS011;31236;55.026;61.042;2023-05-07T16:12:27;6.28;;;2.50;;
45488;SDS011;31236;55.026;61.042;2023-05-07T16:14:57;5.00;;;2.10;;
45488;SDS011;31236;55.026;61.042;2023-05-07T16:17:26;7.53;;;2.12;;
45488;SDS011;31236;55.026;61.042;2023-05-07T16:19:56;14.25;;;9.00;;
45488;SDS011;31236;55.026;61.042;2023-05-07T16:22:27;8.48;;;3.70;;
45488;SDS011;31236;55.026;61.042;2023-05-07T16:24:56;7.22;;;3.67;;
45488;SDS011;31236;55.026;61.042;2023-05-07T16:27:27;5.62;;;1.32;;
45488;SDS011;31236;55.026;61.042;2023-05-07T16:29:57;6.78;;;2.87;;
45488;SDS011;31236;55.026;61.042;2023-05-07T16:32:27;4.08;;;1.50;;
45488;SDS011;31236;55.026;61.042;2023-05-07T16:34:56;7.92;;;1.42;;
45488;SDS011;31236;55.026;61.042;2023-05-07T16:37:26;3.98;;;1.20;;
45488;SDS011;31236;55.026;61.042;2023-05-07T16:39:56;4.15;;;1.27;;
45488;SDS011;31236;55.026;61.042;2023-05-07T16:42:29;4.85;;;1.67;;
45488;SDS011;31236;55.026;61.042;2023-05-07T16:44:59;29.23;;;2.58;;
45488;SDS011;31236;55.026;61.042;2023-05-07T16:47:30;2.20;;;1.30;;
45488;SDS011;31236;55.026;61.042;2023-05-07T16:50:00;3.58;;;1.30;;
45488;SDS011;31236;55.026;61.042;2023-05-07T16:52:31;4.78;;;1.52;;
45488;SDS011;31236;55.026;61.042;2023-05-07T16:55:02;4.70;;;1.42;;
45488;SDS011;31236;55.026;61.042;2023-05-07T16:57:35;4.05;;;1.50;;
45488;SDS011;31236;55.026;61.042;2023-05-07T17:00:06;5.80;;;1.67;;
45488;SDS011;31236;55.026;61.042;2023-05-07T17:05:05;6.85;;;1.35;;
45488;SDS011;31236;55.026;61.042;2023-05-07T17:07:36;3.87;;;1.98;;